ENAT/ALF METAR and TAF weather

Enter ICAO airport designator
Station Type Date Time Source
ENAT METAR 2021/08/04 19:20 UTC NOAA

ENAT 041920Z VRB02KT 9999 FEW025 BKN044 11/07 Q1008 RMK WIND 700FT 33002KT


Station Type Date Time Source
ENAT Decoded METAR 2021/08/04 19:20 UTC NOAA

Alta Lufthavn, Norway (ENAT) 69-59N 023-22E 3M
Aug 04, 2021 - 03:20 PM EDT / 2021.08.04 1920 UTC
Wind: Variable at 2 MPH (2 KT):0
Visibility: greater than 7 mile(s):0
Sky conditions: mostly cloudy
Temperature: 51 F (11 C)
Dew Point: 44 F (7 C)
Relative Humidity: 76%
Pressure (altimeter): 29.77 in. Hg (1008 hPa)
ob: ENAT 041920Z VRB02KT 9999 FEW025 BKN044 11/07 Q1008 RMK WIND 700FT 33002KT
cycle: 19

Station Type Date Time Source
ENAT TAF 2008/11/30 23:00 UTC NOAA

TAF TAF ENAT 302300Z 3023/0102 22005KT 7000 -SN FEW008 BKN020
TEMPO 3023/0102 3000 -SN VV012

Example: see airport list